Time;durP1;ratioP1;P1;durP2;ratioP2;P2;SDS_P1;SDS_P2;PMS_P1;PMS_P2;Temp;Humidity;BMP_temperature;BMP_pressure;BME280_temperature;BME280_humidity;BME280_pressure;Samples;Min_cycle;Max_cycle;Signal;HPM_P1;HPM_P2
2023/02/02 00:01:44;;;;;;;21.52;3.17;;;4.10;95.70;;;;;;5029980;28;20512;-67
2023/02/02 00:04:23;;;;;;;18.30;2.78;;;4.00;96.50;;;;;;5028102;28;20026;-68
2023/02/02 00:06:48;;;;;;;19.60;3.17;;;3.90;96.70;;;;;;5024650;28;20079;-68
2023/02/02 00:09:16;;;;;;;13.57;3.08;;;3.90;96.60;;;;;;5019611;28;20417;-68
2023/02/02 00:11:43;;;;;;;21.30;4.18;;;3.90;96.60;;;;;;5036378;28;20041;-68
2023/02/02 00:14:09;;;;;;;21.80;3.55;;;4.00;96.90;;;;;;5038374;28;20499;-68
2023/02/02 00:16:46;;;;;;;19.85;2.92;;;4.10;96.90;;;;;;5024957;28;20038;-68
2023/02/02 00:19:21;;;;;;;25.15;3.97;;;4.20;96.70;;;;;;5021039;28;20034;-68
2023/02/02 00:21:47;;;;;;;22.75;3.83;;;4.10;97.00;;;;;;5026947;28;20044;-68
2023/02/02 00:24:14;;;;;;;25.58;4.30;;;4.10;97.20;;;;;;5017120;28;20069;-70
2023/02/02 00:26:41;;;;;;;28.70;4.07;;;4.30;96.60;;;;;;5029382;28;20038;-70
2023/02/02 00:29:13;;;;;;;29.90;4.03;;;4.30;96.60;;;;;;5027034;28;20045;-68
2023/02/02 00:31:39;;;;;;;30.10;4.53;;;4.40;96.50;;;;;;5028576;28;20063;-68
2023/02/02 00:34:04;;;;;;;18.45;3.15;;;4.30;96.50;;;;;;5028580;28;20116;-68
2023/02/02 00:36:30;;;;;;;34.88;4.05;;;4.30;96.40;;;;;;5027414;28;20474;-68
2023/02/02 00:38:55;;;;;;;24.48;3.97;;;4.40;96.30;;;;;;5027489;28;20032;-69
2023/02/02 00:41:21;;;;;;;21.20;3.30;;;4.40;96.10;;;;;;5023346;28;20025;-68
2023/02/02 00:45:14;;;;;;;23.92;3.28;;;4.30;96.30;;;;;;5029510;28;20033;-68
2023/02/02 00:46:31;;;;;;;19.08;3.33;;;4.30;96.50;;;;;;5026250;28;20029;-68
2023/02/02 00:48:57;;;;;;;27.42;3.50;;;4.30;97.00;;;;;;5026218;28;20029;-68
2023/02/02 00:51:22;;;;;;;12.05;2.65;;;4.20;97.20;;;;;;5027900;28;20474;-68
2023/02/02 00:53:48;;;;;;;14.63;2.83;;;4.10;97.30;;;;;;5030780;28;20029;-68
2023/02/02 00:56:13;;;;;;;16.52;2.17;;;4.10;97.40;;;;;;5025038;28;20034;-70
2023/02/02 00:58:39;;;;;;;17.58;2.67;;;4.10;97.40;;;;;;5023475;28;20041;-68
2023/02/02 01:01:04;;;;;;;20.52;3.15;;;4.10;97.40;;;;;;5023352;28;20041;-68
2023/02/02 01:03:29;;;;;;;16.63;2.25;;;4.10;97.60;;;;;;5023269;28;20508;-68
2023/02/02 01:05:55;;;;;;;20.08;2.88;;;4.10;97.40;;;;;;5022680;28;20033;-68
2023/02/02 01:08:20;;;;;;;20.77;3.30;;;4.10;97.40;;;;;;5021653;28;20133;-68
2023/02/02 01:10:46;;;;;;;18.08;2.70;;;4.20;97.40;;;;;;5029268;28;20036;-69
2023/02/02 01:13:11;;;;;;;22.98;3.20;;;4.10;97.50;;;;;;5027157;28;20034;-69
2023/02/02 01:15:37;;;;;;;24.08;2.88;;;4.20;97.50;;;;;;5021550;28;20485;-68
2023/02/02 01:18:05;;;;;;;19.85;2.60;;;4.10;97.50;;;;;;5023537;28;20048;-68
2023/02/02 01:20:31;;;;;;;19.63;2.83;;;4.10;97.70;;;;;;5027465;28;20029;-68
2023/02/02 01:22:56;;;;;;;21.63;2.92;;;4.10;97.90;;;;;;5019183;28;20113;-69
2023/02/02 01:25:22;;;;;;;16.08;2.67;;;4.20;97.90;;;;;;5023547;28;20537;-70
2023/02/02 01:27:48;;;;;;;22.27;3.60;;;4.20;98.00;;;;;;5022954;28;20095;-69
2023/02/02 01:30:13;;;;;;;14.70;2.25;;;4.20;97.80;;;;;;5025502;28;20038;-68
2023/02/02 01:32:39;;;;;;;15.02;3.42;;;4.20;97.80;;;;;;5027908;28;20040;-68
2023/02/02 01:35:05;;;;;;;20.08;3.05;;;4.20;97.80;;;;;;5026252;28;20393;-69
2023/02/02 01:37:30;;;;;;;16.45;2.38;;;4.10;97.90;;;;;;5026648;28;20026;-69
2023/02/02 01:39:55;;;;;;;21.42;3.42;;;4.10;98.00;;;;;;5022221;28;20073;-68
2023/02/02 01:42:22;;;;;;;26.98;3.55;;;4.20;97.80;;;;;;5025323;28;20025;-68
2023/02/02 01:45:05;;;;;;;23.75;2.90;;;4.20;97.80;;;;;;5024069;28;20398;-69
2023/02/02 01:47:36;;;;;;;26.85;3.05;;;4.30;97.60;;;;;;5018402;28;20056;-68
2023/02/02 01:50:04;;;;;;;20.85;3.03;;;4.20;97.40;;;;;;5024255;28;20030;-69
2023/02/02 01:52:32;;;;;;;21.88;2.92;;;4.20;97.40;;;;;;5027122;28;20037;-69
2023/02/02 01:55:07;;;;;;;20.13;2.65;;;4.10;97.60;;;;;;5025114;28;20064;-68
2023/02/02 01:58:04;;;;;;;32.92;3.25;;;4.20;97.20;;;;;;5023379;28;20034;-68
2023/02/02 02:00:30;;;;;;;16.95;2.50;;;4.20;96.90;;;;;;5023123;28;20505;-68
2023/02/02 02:03:02;;;;;;;20.80;2.97;;;4.30;96.80;;;;;;5024230;28;20672;-67
2023/02/02 02:05:34;;;;;;;19.63;2.20;;;4.20;97.10;;;;;;5021998;28;20032;-68
2023/02/02 02:08:20;;;;;;;24.55;3.65;;;4.20;97.20;;;;;;5021880;28;20029;-68
2023/02/02 02:10:45;;;;;;;20.95;4.32;;;4.30;97.30;;;;;;5025322;28;20044;-69
2023/02/02 02:13:13;;;;;;;21.38;3.17;;;4.30;97.20;;;;;;5025327;28;20033;-68
2023/02/02 02:16:20;;;;;;;21.00;3.40;;;4.30;97.30;;;;;;5023572;28;20059;-68
2023/02/02 02:19:10;;;;;;;23.67;3.65;;;4.30;97.50;;;;;;5020591;28;20048;-69
2023/02/02 02:28:18;;;;;;;19.52;3.47;;;4.30;98.20;;;;;;5024378;28;20419;-68
2023/02/02 02:30:57;;;;;;;19.58;3.58;;;4.40;98.10;;;;;;5029836;28;20037;-69
2023/02/02 02:33:39;;;;;;;30.27;4.25;;;4.40;98.40;;;;;;5028884;28;20100;-68
2023/02/02 02:36:16;;;;;;;29.80;3.65;;;4.30;98.60;;;;;;5031741;28;20425;-68
2023/02/02 02:38:47;;;;;;;31.65;4.15;;;4.30;98.60;;;;;;5023949;28;20547;-68
2023/02/02 02:41:19;;;;;;;23.85;4.30;;;4.30;98.90;;;;;;5022590;28;20037;-71
2023/02/02 02:43:57;;;;;;;31.50;4.18;;;4.30;99.00;;;;;;5029413;28;20160;-68
2023/02/02 02:46:23;;;;;;;25.63;3.97;;;4.30;99.00;;;;;;5025810;28;20052;-70
2023/02/02 02:48:49;;;;;;;20.50;2.88;;;4.30;99.10;;;;;;5032190;28;20026;-68
2023/02/02 02:51:41;;;;;;;14.35;3.13;;;4.30;99.20;;;;;;5029684;28;20040;-68
2023/02/02 02:54:07;;;;;;;19.15;3.72;;;4.20;99.30;;;;;;5027835;28;20013;-68
2023/02/02 02:56:46;;;;;;;17.95;3.75;;;4.20;99.20;;;;;;5022871;28;20041;-68
2023/02/02 02:59:31;;;;;;;26.20;2.78;;;4.20;99.00;;;;;;5024553;28;20091;-68
2023/02/02 03:02:15;;;;;;;23.02;3.17;;;4.20;98.60;;;;;;5028116;28;20029;-68
2023/02/02 03:05:13;;;;;;;25.65;3.38;;;4.20;98.30;;;;;;5023845;28;20056;-69
2023/02/02 03:07:47;;;;;;;20.33;2.70;;;4.30;97.70;;;;;;5025967;28;20056;-71
2023/02/02 03:10:16;;;;;;;16.15;2.40;;;4.30;97.60;;;;;;5019391;28;20120;-72
2023/02/02 03:12:46;;;;;;;19.33;2.95;;;4.20;97.60;;;;;;5023060;28;20033;-68
2023/02/02 03:15:13;;;;;;;15.30;2.70;;;4.20;97.70;;;;;;5025245;28;20378;-68
2023/02/02 03:17:40;;;;;;;17.65;2.10;;;4.20;97.80;;;;;;5022984;28;20041;-69
2023/02/02 03:20:05;;;;;;;17.48;2.78;;;4.10;97.70;;;;;;5024047;28;20104;-68
2023/02/02 03:22:31;;;;;;;26.27;2.58;;;4.10;97.90;;;;;;5029638;28;20109;-70
2023/02/02 03:24:58;;;;;;;15.77;2.10;;;4.20;97.80;;;;;;5026571;28;20120;-68
2023/02/02 03:27:24;;;;;;;25.73;3.15;;;4.10;97.90;;;;;;5027199;28;20083;-68
2023/02/02 03:29:50;;;;;;;14.85;2.55;;;4.10;97.90;;;;;;5029807;28;20393;-69
2023/02/02 03:32:15;;;;;;;22.80;2.67;;;4.10;97.90;;;;;;5022080;28;20030;-68
2023/02/02 03:34:41;;;;;;;25.90;3.17;;;4.10;98.00;;;;;;5023061;28;20034;-68
2023/02/02 03:37:06;;;;;;;27.70;2.42;;;4.10;97.80;;;;;;5029696;28;20046;-70
2023/02/02 03:39:32;;;;;;;17.38;3.00;;;4.10;97.60;;;;;;5031499;28;20033;-70
2023/02/02 03:41:57;;;;;;;25.33;3.22;;;4.20;97.40;;;;;;5022985;28;20419;-68
2023/02/02 03:44:22;;;;;;;22.65;2.95;;;4.20;97.20;;;;;;5023696;28;20044;-69
2023/02/02 03:46:51;;;;;;;20.27;2.65;;;4.30;96.80;;;;;;5020709;28;20068;-68
2023/02/02 03:49:17;;;;;;;27.10;3.97;;;4.40;96.80;;;;;;5024628;28;20064;-68
2023/02/02 03:51:43;;;;;;;28.92;3.42;;;4.30;96.80;;;;;;5026004;28;20088;-68
2023/02/02 03:54:08;;;;;;;18.20;3.20;;;4.30;96.90;;;;;;5022096;28;20121;-68
2023/02/02 03:56:34;;;;;;;26.33;3.25;;;4.30;96.70;;;;;;5023188;28;20444;-69
2023/02/02 03:58:59;;;;;;;20.83;2.90;;;4.10;96.90;;;;;;5022202;28;20037;-69
2023/02/02 04:01:27;;;;;;;22.85;2.75;;;4.20;96.90;;;;;;5026676;28;20030;-68
2023/02/02 04:03:54;;;;;;;19.70;3.40;;;4.20;96.90;;;;;;5015118;28;20030;-69
2023/02/02 04:06:19;;;;;;;20.77;2.83;;;4.30;96.40;;;;;;5026984;28;20029;-68
2023/02/02 04:08:45;;;;;;;20.00;3.22;;;4.20;96.60;;;;;;5032378;28;20109;-69
2023/02/02 04:11:10;;;;;;;28.20;3.75;;;4.20;96.60;;;;;;5029243;28;20037;-68
2023/02/02 04:13:36;;;;;;;23.63;3.05;;;4.20;96.70;;;;;;5024242;28;20029;-68
2023/02/02 04:16:02;;;;;;;20.98;3.85;;;4.20;96.70;;;;;;5027016;28;20386;-68
2023/02/02 04:18:28;;;;;;;21.80;3.67;;;4.40;96.40;;;;;;5030331;28;20041;-68
2023/02/02 04:21:00;;;;;;;12.18;2.67;;;4.40;96.30;;;;;;5019754;28;20059;-69
2023/02/02 04:23:27;;;;;;;21.23;3.15;;;4.40;96.20;;;;;;5023307;28;20058;-69
2023/02/02 04:25:52;;;;;;;23.15;3.22;;;4.40;96.00;;;;;;5029276;28;20534;-71
2023/02/02 04:28:19;;;;;;;20.83;2.72;;;4.40;95.80;;;;;;5026519;28;20565;-69
2023/02/02 04:30:44;;;;;;;28.00;3.08;;;4.30;96.10;;;;;;5028895;28;20068;-70
2023/02/02 04:33:09;;;;;;;20.08;3.05;;;4.30;96.20;;;;;;5026605;28;20112;-68
2023/02/02 04:35:35;;;;;;;22.90;3.55;;;4.30;95.80;;;;;;5022090;28;20482;-68
2023/02/02 04:38:00;;;;;;;17.35;3.20;;;4.30;96.10;;;;;;5021105;28;20043;-68
2023/02/02 04:40:26;;;;;;;22.38;3.15;;;4.40;95.90;;;;;;5021961;28;20021;-68
2023/02/02 04:42:51;;;;;;;28.85;3.25;;;4.50;95.50;;;;;;5025242;28;20033;-70
2023/02/02 04:45:17;;;;;;;21.83;2.95;;;4.40;95.60;;;;;;5026482;28;20521;-68
2023/02/02 04:47:42;;;;;;;18.05;3.55;;;4.40;95.60;;;;;;5021109;28;20150;-68
2023/02/02 04:50:09;;;;;;;24.35;3.13;;;4.40;95.60;;;;;;5022285;28;20057;-68
2023/02/02 04:52:34;;;;;;;18.73;3.17;;;4.30;95.70;;;;;;5029688;28;20112;-68
2023/02/02 04:55:00;;;;;;;20.95;3.15;;;4.30;95.90;;;;;;5025438;28;20033;-68
2023/02/02 04:57:26;;;;;;;22.52;3.22;;;4.30;96.00;;;;;;5021763;28;20045;-68
2023/02/02 04:59:51;;;;;;;27.52;3.33;;;4.30;96.00;;;;;;5023985;28;20038;-68
2023/02/02 05:02:17;;;;;;;21.58;2.72;;;4.30;95.80;;;;;;5029844;28;20025;-68
2023/02/02 05:04:42;;;;;;;20.10;3.75;;;4.30;95.80;;;;;;5024756;28;20126;-69
2023/02/02 05:07:08;;;;;;;21.92;3.45;;;4.30;95.80;;;;;;5029176;28;20377;-68
2023/02/02 05:09:33;;;;;;;18.08;3.17;;;4.30;96.20;;;;;;5025938;28;20153;-70
2023/02/02 05:11:59;;;;;;;20.77;3.70;;;4.30;96.20;;;;;;5026474;28;20103;-68
2023/02/02 05:14:24;;;;;;;25.30;3.45;;;4.40;96.10;;;;;;5022642;28;20037;-68
2023/02/02 05:16:50;;;;;;;23.33;3.30;;;4.30;96.30;;;;;;5024217;28;20457;-68
2023/02/02 05:19:15;;;;;;;23.63;3.50;;;4.20;96.40;;;;;;5014823;28;20030;-69
2023/02/02 05:21:43;;;;;;;28.67;3.35;;;4.30;96.40;;;;;;5030073;28;20048;-68
2023/02/02 05:24:09;;;;;;;26.77;3.88;;;4.30;96.30;;;;;;5024975;28;20120;-68
2023/02/02 05:26:35;;;;;;;25.35;3.30;;;4.30;96.40;;;;;;5020468;28;20026;-68
2023/02/02 05:29:01;;;;;;;28.13;3.80;;;4.20;96.50;;;;;;5022919;28;20048;-69
2023/02/02 05:31:27;;;;;;;17.45;3.33;;;4.20;96.60;;;;;;5026005;28;20033;-68
2023/02/02 05:33:52;;;;;;;26.17;3.67;;;4.20;96.80;;;;;;5028025;28;20041;-69
2023/02/02 05:36:17;;;;;;;29.02;3.40;;;4.30;96.60;;;;;;5023142;28;20029;-69
2023/02/02 05:38:43;;;;;;;30.75;4.75;;;4.30;96.50;;;;;;5026751;28;20037;-69
2023/02/02 05:41:08;;;;;;;21.02;3.15;;;4.30;96.60;;;;;;5027956;28;20034;-68
2023/02/02 05:43:34;;;;;;;21.95;3.78;;;4.20;96.60;;;;;;5026196;28;20108;-69
2023/02/02 05:46:00;;;;;;;26.23;3.90;;;4.20;96.40;;;;;;5021941;28;20041;-68
2023/02/02 05:48:26;;;;;;;21.10;3.50;;;4.20;96.50;;;;;;5021945;28;20034;-69
2023/02/02 05:51:18;;;;;;;28.52;3.72;;;4.30;96.60;;;;;;5022474;28;20378;-68
2023/02/02 05:53:44;;;;;;;28.88;3.72;;;4.30;96.40;;;;;;5030570;28;20022;-68
2023/02/02 05:56:10;;;;;;;24.73;2.97;;;4.30;96.10;;;;;;5022070;28;20092;-68
2023/02/02 05:58:36;;;;;;;24.52;4.20;;;4.30;96.20;;;;;;5023949;28;20048;-69
2023/02/02 06:01:02;;;;;;;27.70;4.20;;;4.30;96.30;;;;;;5022803;28;20041;-69
2023/02/02 06:03:27;;;;;;;25.00;3.30;;;4.30;96.40;;;;;;5024355;28;20022;-69
2023/02/02 06:05:53;;;;;;;21.58;3.28;;;4.40;96.30;;;;;;5020250;28;20037;-69
2023/02/02 06:08:18;;;;;;;25.10;3.58;;;4.30;96.20;;;;;;5030982;28;20529;-69
2023/02/02 06:10:44;;;;;;;21.17;3.67;;;4.40;96.00;;;;;;5027867;28;20021;-69
2023/02/02 06:13:09;;;;;;;29.50;3.40;;;4.40;96.00;;;;;;5028259;28;20375;-68
2023/02/02 06:15:36;;;;;;;28.75;3.83;;;4.30;96.10;;;;;;5027186;28;20127;-68
2023/02/02 06:18:02;;;;;;;31.40;4.00;;;4.30;96.30;;;;;;5022637;28;20083;-68
2023/02/02 06:20:27;;;;;;;20.83;3.33;;;4.20;96.40;;;;;;5023138;28;20030;-68
2023/02/02 06:22:53;;;;;;;27.30;3.55;;;4.20;96.60;;;;;;5012936;28;20104;-68
2023/02/02 06:25:18;;;;;;;27.77;3.67;;;4.30;96.70;;;;;;5024289;28;20036;-68
2023/02/02 06:27:45;;;;;;;28.42;3.35;;;4.20;96.60;;;;;;5017303;28;20056;-69
2023/02/02 06:30:11;;;;;;;28.20;3.75;;;4.20;96.70;;;;;;5020473;28;20393;-68
2023/02/02 06:32:37;;;;;;;29.05;4.63;;;4.20;96.80;;;;;;5021029;28;20044;-69
2023/02/02 06:35:03;;;;;;;24.17;3.67;;;4.30;96.80;;;;;;5025119;28;20033;-69
2023/02/02 06:37:29;;;;;;;30.50;3.88;;;4.30;96.70;;;;;;5024458;28;20128;-68
2023/02/02 06:39:54;;;;;;;23.95;3.40;;;4.30;96.60;;;;;;5020401;28;20561;-68
2023/02/02 06:42:20;;;;;;;29.33;3.75;;;4.20;96.50;;;;;;5026536;28;20112;-69
2023/02/02 06:44:45;;;;;;;23.83;3.78;;;4.30;96.40;;;;;;5021403;28;20096;-68
2023/02/02 06:47:11;;;;;;;28.70;3.72;;;4.20;96.40;;;;;;5018758;28;20035;-71
2023/02/02 06:49:36;;;;;;;24.00;3.30;;;4.10;96.40;;;;;;5018390;28;20025;-71
2023/02/02 06:52:01;;;;;;;25.33;3.38;;;4.10;96.60;;;;;;5023114;28;20489;-68
2023/02/02 06:54:27;;;;;;;34.08;4.47;;;4.10;96.60;;;;;;5015214;28;20116;-68
2023/02/02 06:56:54;;;;;;;31.10;3.95;;;4.10;96.70;;;;;;5017271;28;20048;-69
2023/02/02 06:59:19;;;;;;;25.65;3.88;;;4.00;96.70;;;;;;5020050;28;20022;-69
2023/02/02 07:01:47;;;;;;;24.00;3.47;;;4.00;96.80;;;;;;5019958;28;20425;-69
2023/02/02 07:04:13;;;;;;;31.42;4.00;;;4.10;96.80;;;;;;5025676;28;20064;-68
2023/02/02 07:06:38;;;;;;;27.10;3.70;;;4.10;96.60;;;;;;5019738;28;20100;-68
2023/02/02 07:09:04;;;;;;;25.08;3.20;;;4.10;96.60;;;;;;5026439;28;20036;-69
2023/02/02 07:11:34;;;;;;;32.40;4.80;;;4.10;96.70;;;;;;5020769;28;20390;-69
2023/02/02 07:14:00;;;;;;;30.45;4.78;;;4.10;96.70;;;;;;5024108;28;20048;-69
2023/02/02 07:16:25;;;;;;;31.00;4.03;;;4.10;96.60;;;;;;5029956;28;20037;-68
2023/02/02 07:18:51;;;;;;;22.13;3.53;;;4.00;96.70;;;;;;5023973;28;20022;-69
2023/02/02 07:21:19;;;;;;;25.10;3.53;;;4.10;96.90;;;;;;5025083;28;20113;-68
2023/02/02 07:23:45;;;;;;;21.98;3.45;;;4.00;96.90;;;;;;5022906;28;20591;-69
2023/02/02 07:26:12;;;;;;;28.48;4.60;;;4.00;97.10;;;;;;5030320;28;20058;-68
2023/02/02 07:28:38;;;;;;;28.27;4.30;;;4.10;97.00;;;;;;5024469;28;20060;-68
2023/02/02 07:31:18;;;;;;;26.23;5.00;;;4.10;97.20;;;;;;5030061;28;20443;-68
2023/02/02 07:33:45;;;;;;;27.80;4.80;;;4.10;97.30;;;;;;5026182;28;20433;-68
2023/02/02 07:36:13;;;;;;;24.88;4.57;;;4.10;97.30;;;;;;5026246;28;20120;-68
2023/02/02 07:38:38;;;;;;;23.27;3.97;;;4.10;97.30;;;;;;5022676;28;20474;-69
2023/02/02 07:41:04;;;;;;;40.72;5.10;;;4.10;97.30;;;;;;5019828;28;20070;-69
2023/02/02 07:43:29;;;;;;;35.88;5.57;;;4.10;97.40;;;;;;5027581;28;20065;-71
2023/02/02 07:46:01;;;;;;;33.83;5.57;;;4.10;97.40;;;;;;5024283;28;20034;-69
2023/02/02 07:48:28;;;;;;;26.60;5.97;;;4.10;97.40;;;;;;5027858;28;20036;-69
2023/02/02 07:50:58;;;;;;;27.38;4.35;;;4.10;97.50;;;;;;5019514;28;20068;-70
2023/02/02 07:53:23;;;;;;;22.45;3.85;;;4.00;97.50;;;;;;5030860;28;20033;-69
2023/02/02 07:55:49;;;;;;;32.50;4.93;;;4.10;97.50;;;;;;5023673;28;20040;-69
2023/02/02 07:58:14;;;;;;;33.25;5.50;;;4.00;97.40;;;;;;5027318;28;20203;-68
2023/02/02 08:00:40;;;;;;;35.50;6.43;;;4.10;97.30;;;;;;5019895;28;20490;-68
2023/02/02 08:03:05;;;;;;;23.58;5.57;;;4.10;97.30;;;;;;5025355;28;20022;-68
2023/02/02 08:05:33;;;;;;;30.02;3.95;;;4.10;97.20;;;;;;5021559;28;20053;-68
2023/02/02 08:07:58;;;;;;;34.33;4.18;;;4.10;97.10;;;;;;5026222;28;20619;-69
2023/02/02 08:10:24;;;;;;;16.75;2.88;;;4.10;97.10;;;;;;5020000;28;20069;-68
2023/02/02 08:12:49;;;;;;;26.10;3.40;;;4.10;97.10;;;;;;5021746;28;20029;-67
2023/02/02 08:15:15;;;;;;;28.98;4.63;;;4.00;97.10;;;;;;5016987;28;20034;-67
2023/02/02 08:17:45;;;;;;;30.42;4.45;;;4.00;97.20;;;;;;5021193;28;20041;-68
2023/02/02 08:20:12;;;;;;;28.13;3.43;;;4.00;97.20;;;;;;5018951;28;20029;-68
2023/02/02 08:22:38;;;;;;;28.88;3.65;;;4.10;97.30;;;;;;5022742;28;20099;-68
2023/02/02 08:25:04;;;;;;;27.35;4.75;;;4.20;97.20;;;;;;5018188;28;20425;-68
2023/02/02 08:27:29;;;;;;;31.42;4.55;;;4.20;97.20;;;;;;5021262;28;20037;-68
2023/02/02 08:29:55;;;;;;;24.63;4.03;;;4.30;96.90;;;;;;5025928;28;20021;-69
2023/02/02 08:32:20;;;;;;;29.52;3.88;;;4.30;96.80;;;;;;5021607;28;20521;-68
2023/02/02 08:34:47;;;;;;;23.77;4.55;;;4.30;96.80;;;;;;5020168;28;20034;-67
2023/02/02 08:37:13;;;;;;;23.42;3.65;;;4.40;96.90;;;;;;5018831;28;20041;-68
2023/02/02 08:39:38;;;;;;;25.88;3.20;;;4.50;96.80;;;;;;5023000;28;20113;-67
2023/02/02 08:42:04;;;;;;;28.15;3.72;;;4.60;96.50;;;;;;5025414;28;20038;-68
2023/02/02 08:44:29;;;;;;;30.73;3.70;;;4.60;96.30;;;;;;5025004;28;20022;-68
2023/02/02 08:46:55;;;;;;;29.17;3.88;;;4.60;96.30;;;;;;5024586;28;20042;-68
2023/02/02 08:49:20;;;;;;;26.83;4.45;;;4.60;96.20;;;;;;5016864;28;20028;-67
2023/02/02 08:51:46;;;;;;;23.02;3.35;;;4.70;96.30;;;;;;5021678;28;20037;-70
2023/02/02 08:54:11;;;;;;;18.30;4.13;;;4.60;96.20;;;;;;5022896;28;20053;-70
2023/02/02 08:56:37;;;;;;;28.92;3.60;;;4.60;96.00;;;;;;5023090;28;20079;-69
2023/02/02 08:59:04;;;;;;;22.08;3.33;;;4.60;96.20;;;;;;5022415;28;20402;-71
2023/02/02 09:01:31;;;;;;;29.58;4.05;;;4.70;96.20;;;;;;5023116;28;20413;-70
2023/02/02 09:04:03;;;;;;;24.48;3.65;;;4.80;96.20;;;;;;5024414;28;20063;-71
2023/02/02 09:06:39;;;;;;;23.23;3.42;;;4.80;96.20;;;;;;5025861;28;20416;-68
2023/02/02 09:09:08;;;;;;;28.48;4.43;;;4.70;96.40;;;;;;5026296;28;20366;-69
2023/02/02 09:11:34;;;;;;;26.02;3.95;;;4.90;96.60;;;;;;5021965;28;20148;-68
2023/02/02 09:14:01;;;;;;;24.70;3.47;;;5.00;95.90;;;;;;5023436;28;20037;-68
2023/02/02 09:16:28;;;;;;;22.30;3.50;;;5.00;95.60;;;;;;5019525;28;20030;-69
2023/02/02 09:18:54;;;;;;;29.67;3.55;;;4.90;95.70;;;;;;5025933;28;20382;-70
2023/02/02 09:21:21;;;;;;;27.95;3.95;;;5.00;95.90;;;;;;5019778;28;20025;-69
2023/02/02 09:23:48;;;;;;;27.65;4.35;;;5.20;95.70;;;;;;5031193;28;20049;-69
2023/02/02 09:26:27;;;;;;;28.52;4.07;;;5.40;95.40;;;;;;5024941;28;20088;-69
2023/02/02 09:28:56;;;;;;;18.27;3.97;;;5.40;95.10;;;;;;5017699;28;20489;-69
2023/02/02 09:31:22;;;;;;;19.52;3.58;;;5.30;95.20;;;;;;5015241;28;20041;-69
2023/02/02 09:33:48;;;;;;;29.38;4.70;;;5.20;95.50;;;;;;5026930;28;20060;-70
2023/02/02 09:36:16;;;;;;;21.50;3.97;;;5.30;96.00;;;;;;5026213;28;20079;-69
2023/02/02 09:38:42;;;;;;;26.38;3.83;;;5.30;96.00;;;;;;5022928;28;20033;-69
2023/02/02 09:41:26;;;;;;;25.30;4.53;;;5.30;95.80;;;;;;5021108;28;20429;-69
2023/02/02 09:44:04;;;;;;;19.20;3.38;;;5.30;95.70;;;;;;5021497;28;20541;-68
2023/02/02 09:47:12;;;;;;;29.80;3.70;;;5.30;95.50;;;;;;5019953;28;20429;-69
2023/02/02 09:50:02;;;;;;;20.42;3.78;;;5.40;95.50;;;;;;5021724;28;20038;-70
2023/02/02 09:52:38;;;;;;;25.42;3.63;;;5.60;95.20;;;;;;5016558;28;20110;-69
2023/02/02 09:55:31;;;;;;;31.38;4.22;;;5.50;95.10;;;;;;5015462;28;20056;-68
2023/02/02 09:58:11;;;;;;;32.00;4.00;;;5.40;95.20;;;;;;5015371;28;20381;-69
2023/02/02 10:00:42;;;;;;;27.10;3.38;;;5.50;95.30;;;;;;5019251;28;20076;-69
2023/02/02 10:03:23;;;;;;;21.13;3.58;;;5.60;95.40;;;;;;5027596;28;20118;-69
2023/02/02 10:06:10;;;;;;;23.38;4.07;;;5.60;95.40;;;;;;5025277;28;20467;-69
2023/02/02 10:08:46;;;;;;;24.25;5.40;;;5.80;95.10;;;;;;5019465;28;20045;-69
2023/02/02 10:11:40;;;;;;;26.83;4.60;;;5.90;94.90;;;;;;5027530;28;20390;-69
2023/02/02 10:14:24;;;;;;;34.38;4.88;;;6.00;94.80;;;;;;5020417;28;20060;-69
2023/02/02 10:16:53;;;;;;;32.03;4.32;;;6.10;94.10;;;;;;5021960;28;20037;-68
2023/02/02 10:19:19;;;;;;;24.30;3.50;;;6.30;93.70;;;;;;5019572;28;20037;-69
2023/02/02 10:21:50;;;;;;;21.55;3.97;;;6.30;93.40;;;;;;5014169;28;20489;-68
2023/02/02 10:24:19;;;;;;;27.98;4.18;;;6.20;93.20;;;;;;5012861;28;20048;-70
2023/02/02 10:26:48;;;;;;;22.02;3.70;;;6.30;93.10;;;;;;5023208;28;20073;-69
2023/02/02 10:29:25;;;;;;;20.35;3.53;;;6.40;92.30;;;;;;5020518;28;20033;-68
2023/02/02 10:32:21;;;;;;;19.55;2.90;;;6.50;92.20;;;;;;5019656;28;20030;-68
2023/02/02 10:34:56;;;;;;;20.20;3.22;;;6.60;91.30;;;;;;5023122;28;20483;-68
2023/02/02 10:38:11;;;;;;;16.05;3.92;;;7.10;91.20;;;;;;5020808;28;20045;-69
2023/02/02 10:40:53;;;;;;;27.50;3.65;;;7.00;90.30;;;;;;5044365;28;20032;-69
2023/02/02 10:43:50;;;;;;;19.63;4.55;;;7.20;90.30;;;;;;5042592;28;20033;-69
2023/02/02 10:46:34;;;;;;;20.80;2.58;;;7.30;90.00;;;;;;5017602;28;20037;-69
2023/02/02 10:49:14;;;;;;;17.77;3.25;;;7.20;89.30;;;;;;5018087;28;20034;-70
2023/02/02 10:51:42;;;;;;;21.77;3.47;;;7.10;89.60;;;;;;5028705;28;20106;-69
2023/02/02 10:54:37;;;;;;;13.75;2.75;;;7.00;89.80;;;;;;5022345;28;20454;-69
2023/02/02 10:57:06;;;;;;;17.25;2.65;;;7.10;90.30;;;;;;5015777;28;20048;-70
2023/02/02 10:59:37;;;;;;;18.92;2.85;;;7.30;89.80;;;;;;5025325;28;20661;-69
2023/02/02 11:02:08;;;;;;;;;;;7.10;89.90;;;;;;5024311;28;20458;-70
2023/02/02 11:07:19;;;;;;;11.70;2.45;;;7.10;89.70;;;;;;5026005;28;20045;-71
2023/02/02 11:09:45;;;;;;;10.07;2.40;;;7.10;89.20;;;;;;5026078;28;20031;-70
2023/02/02 11:12:32;;;;;;;15.60;2.65;;;7.40;89.00;;;;;;5024852;28;20033;-69
2023/02/02 11:15:24;;;;;;;12.55;1.92;;;7.30;87.60;;;;;;5027871;28;20057;-69
2023/02/02 11:17:49;;;;;;;16.92;2.58;;;7.10;87.70;;;;;;5025263;28;20084;-69
2023/02/02 11:20:33;;;;;;;7.05;1.55;;;7.30;86.70;;;;;;5017772;28;20029;-69
2023/02/02 11:23:03;;;;;;;13.45;2.30;;;7.60;85.20;;;;;;5022706;28;20053;-69
2023/02/02 11:25:35;;;;;;;10.90;1.52;;;7.90;85.70;;;;;;5015260;28;20117;-70
2023/02/02 11:28:12;;;;;;;7.85;1.42;;;7.60;84.40;;;;;;5019090;28;20550;-69
2023/02/02 11:30:39;;;;;;;11.25;1.73;;;7.60;83.80;;;;;;5018413;28;20037;-69
2023/02/02 11:33:35;;;;;;;5.22;1.23;;;7.60;84.70;;;;;;5024096;28;20103;-69
2023/02/02 11:36:20;;;;;;;9.57;1.63;;;7.90;83.60;;;;;;5027504;28;20060;-69
2023/02/02 11:38:46;;;;;;;13.38;1.50;;;8.10;83.90;;;;;;5029915;28;20038;-69
2023/02/02 11:41:14;;;;;;;7.70;1.65;;;8.00;82.10;;;;;;5031230;28;20080;-69
2023/02/02 11:43:49;;;;;;;12.35;1.75;;;8.20;82.20;;;;;;5019307;28;20049;-69
2023/02/02 11:46:23;;;;;;;9.40;1.73;;;7.90;82.30;;;;;;5024037;28;20061;-69
2023/02/02 11:49:03;;;;;;;9.70;1.77;;;7.80;82.60;;;;;;5031574;28;20046;-69
2023/02/02 11:51:30;;;;;;;7.33;1.00;;;7.70;83.20;;;;;;5024891;28;20048;-69
2023/02/02 11:54:20;;;;;;;5.68;0.95;;;7.80;82.10;;;;;;5018697;28;20075;-69
2023/02/02 11:56:52;;;;;;;6.43;1.23;;;7.90;82.50;;;;;;5029488;28;20111;-69
2023/02/02 11:59:42;;;;;;;7.18;1.38;;;7.90;83.00;;;;;;5021041;28;20144;-69
2023/02/02 12:02:30;;;;;;;6.60;1.45;;;8.10;82.40;;;;;;5024842;28;20046;-69
2023/02/02 12:05:13;;;;;;;12.57;1.60;;;8.00;78.40;;;;;;5025541;28;20034;-69
2023/02/02 12:07:40;;;;;;;7.63;1.05;;;8.30;78.90;;;;;;5025427;28;20025;-70
2023/02/02 12:10:18;;;;;;;6.65;1.35;;;8.10;78.30;;;;;;5020043;28;20075;-69
2023/02/02 12:12:51;;;;;;;7.70;1.55;;;7.90;78.30;;;;;;5015706;28;20034;-69
2023/02/02 12:15:36;;;;;;;7.60;1.38;;;7.60;78.50;;;;;;5015159;28;20021;-69
2023/02/02 12:18:40;;;;;;;8.95;1.23;;;7.50;79.00;;;;;;5022059;28;20059;-70
2023/02/02 12:21:18;;;;;;;11.35;1.40;;;7.40;80.70;;;;;;5035779;28;20045;-69
2023/02/02 12:24:12;;;;;;;6.78;1.27;;;7.30;81.20;;;;;;5037774;28;20489;-70
2023/02/02 12:26:40;;;;;;;7.93;1.52;;;7.10;81.60;;;;;;5024678;28;20467;-76
2023/02/02 12:29:43;;;;;;;8.07;1.40;;;7.20;81.40;;;;;;5024362;28;20033;-69
2023/02/02 12:32:42;;;;;;;10.70;2.65;;;7.90;81.00;;;;;;5028643;28;20525;-70
2023/02/02 12:35:39;;;;;;;9.45;1.25;;;8.50;80.60;;;;;;5024662;28;20409;-72
2023/02/02 12:38:19;;;;;;;7.57;1.33;;;8.70;76.90;;;;;;5020327;28;20041;-70
2023/02/02 12:41:15;;;;;;;9.73;1.08;;;9.00;76.80;;;;;;5027926;28;20039;-71
2023/02/02 12:43:48;;;;;;;3.50;0.95;;;8.80;76.00;;;;;;5025826;28;20029;-71
2023/02/02 12:46:20;;;;;;;7.65;0.85;;;9.20;75.60;;;;;;5026865;28;20033;-71
2023/02/02 12:49:12;;;;;;;6.78;1.30;;;9.10;74.30;;;;;;5027021;28;20029;-71
2023/02/02 12:51:41;;;;;;;9.40;1.85;;;9.50;73.50;;;;;;5015447;28;20038;-71
2023/02/02 12:54:39;;;;;;;8.05;1.50;;;9.60;71.80;;;;;;5028183;28;20077;-72
2023/02/02 12:57:25;;;;;;;5.85;1.02;;;9.80;73.20;;;;;;5026623;28;20037;-72
2023/02/02 13:00:04;;;;;;;8.50;1.35;;;9.50;71.50;;;;;;5025387;28;20044;-71
2023/02/02 13:03:00;;;;;;;4.93;0.98;;;9.20;73.50;;;;;;5019989;28;20032;-71
2023/02/02 13:06:12;;;;;;;8.13;1.70;;;9.30;73.70;;;;;;5026071;28;20035;-71
2023/02/02 13:08:48;;;;;;;8.60;1.58;;;9.00;76.10;;;;;;5028300;28;20033;-72
2023/02/02 13:11:30;;;;;;;6.82;1.33;;;9.10;76.10;;;;;;5019101;28;20032;-71
2023/02/02 13:14:07;;;;;;;5.97;1.33;;;9.50;74.60;;;;;;5025251;28;20021;-72
2023/02/02 13:16:35;;;;;;;6.18;1.20;;;9.60;75.30;;;;;;5019265;28;20382;-72
2023/02/02 13:19:12;;;;;;;4.82;1.20;;;10.00;72.60;;;;;;5017888;28;20034;-72